sensor_id;sensor_type;location;lat;lon;timestamp;temperature;humidity
74666;DHT22;63193;50.106;8.694;2022-09-17T00:00:17;13.30;68.70
74666;DHT22;63193;50.106;8.694;2022-09-17T00:02:42;13.30;69.00
74666;DHT22;63193;50.106;8.694;2022-09-17T00:05:10;13.30;69.40
74666;DHT22;63193;50.106;8.694;2022-09-17T00:07:36;13.30;69.40
74666;DHT22;63193;50.106;8.694;2022-09-17T00:10:01;13.30;69.30
74666;DHT22;63193;50.106;8.694;2022-09-17T00:12:27;13.40;69.40
74666;DHT22;63193;50.106;8.694;2022-09-17T00:14:53;13.40;69.40
74666;DHT22;63193;50.106;8.694;2022-09-17T00:17:18;13.30;69.40
74666;DHT22;63193;50.106;8.694;2022-09-17T00:19:44;13.40;69.40
74666;DHT22;63193;50.106;8.694;2022-09-17T00:22:09;13.40;69.40
74666;DHT22;63193;50.106;8.694;2022-09-17T00:24:35;13.40;69.20
74666;DHT22;63193;50.106;8.694;2022-09-17T00:27:00;13.40;69.40
74666;DHT22;63193;50.106;8.694;2022-09-17T00:29:26;13.40;69.30
74666;DHT22;63193;50.106;8.694;2022-09-17T00:31:51;13.50;69.40
74666;DHT22;63193;50.106;8.694;2022-09-17T00:34:17;13.50;69.40
74666;DHT22;63193;50.106;8.694;2022-09-17T00:36:42;13.50;69.80
74666;DHT22;63193;50.106;8.694;2022-09-17T00:39:10;13.40;69.60
74666;DHT22;63193;50.106;8.694;2022-09-17T00:41:37;13.40;69.50
74666;DHT22;63193;50.106;8.694;2022-09-17T00:47:31;13.30;69.80
74666;DHT22;63193;50.106;8.694;2022-09-17T00:52:52;13.30;70.00
74666;DHT22;63193;50.106;8.694;2022-09-17T00:55:24;13.30;70.00
74666;DHT22;63193;50.106;8.694;2022-09-17T00:57:53;13.30;69.90
74666;DHT22;63193;50.106;8.694;2022-09-17T01:00:20;13.20;70.00
74666;DHT22;63193;50.106;8.694;2022-09-17T01:02:46;13.30;70.00
74666;DHT22;63193;50.106;8.694;2022-09-17T01:05:12;13.30;70.20
74666;DHT22;63193;50.106;8.694;2022-09-17T01:08:03;13.30;70.30
74666;DHT22;63193;50.106;8.694;2022-09-17T01:13:41;13.20;70.60
74666;DHT22;63193;50.106;8.694;2022-09-17T01:22:52;13.20;70.90
74666;DHT22;63193;50.106;8.694;2022-09-17T01:25:37;13.20;70.90
74666;DHT22;63193;50.106;8.694;2022-09-17T01:31:39;13.30;70.80
74666;DHT22;63193;50.106;8.694;2022-09-17T01:37:13;13.30;70.20
74666;DHT22;63193;50.106;8.694;2022-09-17T01:40:03;13.30;70.20
74666;DHT22;63193;50.106;8.694;2022-09-17T01:43:07;13.30;70.30
74666;DHT22;63193;50.106;8.694;2022-09-17T01:46:15;13.20;70.40
74666;DHT22;63193;50.106;8.694;2022-09-17T01:48:35;13.30;70.30
74666;DHT22;63193;50.106;8.694;2022-09-17T01:51:15;13.30;70.20
74666;DHT22;63193;50.106;8.694;2022-09-17T01:56:57;13.40;70.20
74666;DHT22;63193;50.106;8.694;2022-09-17T01:59:49;13.40;70.20
74666;DHT22;63193;50.106;8.694;2022-09-17T02:02:26;13.40;70.20
74666;DHT22;63193;50.106;8.694;2022-09-17T02:05:32;13.40;70.50
74666;DHT22;63193;50.106;8.694;2022-09-17T02:08:05;13.30;70.80
74666;DHT22;63193;50.106;8.694;2022-09-17T02:10:36;13.30;71.00
74666;DHT22;63193;50.106;8.694;2022-09-17T02:13:25;13.30;70.90
74666;DHT22;63193;50.106;8.694;2022-09-17T02:16:00;13.30;71.30
74666;DHT22;63193;50.106;8.694;2022-09-17T02:19:01;13.20;71.60
74666;DHT22;63193;50.106;8.694;2022-09-17T02:24:22;13.20;72.10
74666;DHT22;63193;50.106;8.694;2022-09-17T02:27:04;13.20;72.00
74666;DHT22;63193;50.106;8.694;2022-09-17T02:29:39;13.20;72.00
74666;DHT22;63193;50.106;8.694;2022-09-17T02:32:06;13.20;71.70
74666;DHT22;63193;50.106;8.694;2022-09-17T02:34:32;13.30;71.40
74666;DHT22;63193;50.106;8.694;2022-09-17T02:36:59;13.40;71.10
74666;DHT22;63193;50.106;8.694;2022-09-17T02:39:26;13.40;70.60
74666;DHT22;63193;50.106;8.694;2022-09-17T02:42:23;13.30;70.80
74666;DHT22;63193;50.106;8.694;2022-09-17T02:45:28;13.30;74.80
74666;DHT22;63193;50.106;8.694;2022-09-17T02:48:19;13.30;80.20
74666;DHT22;63193;50.106;8.694;2022-09-17T02:51:35;13.20;77.10
74666;DHT22;63193;50.106;8.694;2022-09-17T02:54:20;13.20;76.20
74666;DHT22;63193;50.106;8.694;2022-09-17T02:57:04;13.20;76.00
74666;DHT22;63193;50.106;8.694;2022-09-17T02:59:45;13.20;76.70
74666;DHT22;63193;50.106;8.694;2022-09-17T03:02:27;13.10;75.90
74666;DHT22;63193;50.106;8.694;2022-09-17T03:04:55;13.10;76.60
74666;DHT22;63193;50.106;8.694;2022-09-17T03:07:22;13.10;77.70
74666;DHT22;63193;50.106;8.694;2022-09-17T03:09:49;13.00;77.10
74666;DHT22;63193;50.106;8.694;2022-09-17T03:12:15;12.90;78.30
74666;DHT22;63193;50.106;8.694;2022-09-17T03:14:41;12.80;78.90
74666;DHT22;63193;50.106;8.694;2022-09-17T03:17:06;12.90;79.90
74666;DHT22;63193;50.106;8.694;2022-09-17T03:19:32;12.80;81.70
74666;DHT22;63193;50.106;8.694;2022-09-17T03:21:57;12.90;82.90
74666;DHT22;63193;50.106;8.694;2022-09-17T03:24:23;12.90;80.40
74666;DHT22;63193;50.106;8.694;2022-09-17T03:26:48;12.90;80.30
74666;DHT22;63193;50.106;8.694;2022-09-17T03:29:15;12.90;81.70
74666;DHT22;63193;50.106;8.694;2022-09-17T03:31:41;13.00;81.10
74666;DHT22;63193;50.106;8.694;2022-09-17T03:34:06;13.10;82.00
74666;DHT22;63193;50.106;8.694;2022-09-17T03:36:32;13.00;82.00
74666;DHT22;63193;50.106;8.694;2022-09-17T03:38:58;13.00;83.20
74666;DHT22;63193;50.106;8.694;2022-09-17T03:41:24;13.00;84.10
74666;DHT22;63193;50.106;8.694;2022-09-17T03:43:50;13.00;82.80
74666;DHT22;63193;50.106;8.694;2022-09-17T03:46:16;13.00;84.70
74666;DHT22;63193;50.106;8.694;2022-09-17T03:48:42;12.90;84.90
74666;DHT22;63193;50.106;8.694;2022-09-17T03:51:08;12.90;86.20
74666;DHT22;63193;50.106;8.694;2022-09-17T03:53:33;12.90;86.00
74666;DHT22;63193;50.106;8.694;2022-09-17T03:56:00;12.80;86.00
74666;DHT22;63193;50.106;8.694;2022-09-17T03:58:27;12.80;87.60
74666;DHT22;63193;50.106;8.694;2022-09-17T04:00:53;12.80;89.90
74666;DHT22;63193;50.106;8.694;2022-09-17T04:03:21;12.80;90.60
74666;DHT22;63193;50.106;8.694;2022-09-17T04:05:46;12.70;90.50
74666;DHT22;63193;50.106;8.694;2022-09-17T04:08:12;12.70;90.40
74666;DHT22;63193;50.106;8.694;2022-09-17T04:10:38;12.60;90.80
74666;DHT22;63193;50.106;8.694;2022-09-17T04:13:03;12.70;91.20
74666;DHT22;63193;50.106;8.694;2022-09-17T04:15:28;12.70;91.70
74666;DHT22;63193;50.106;8.694;2022-09-17T04:17:55;12.70;91.60
74666;DHT22;63193;50.106;8.694;2022-09-17T04:20:24;12.70;92.20
74666;DHT22;63193;50.106;8.694;2022-09-17T04:22:50;12.70;90.80
74666;DHT22;63193;50.106;8.694;2022-09-17T04:25:16;12.70;91.00
74666;DHT22;63193;50.106;8.694;2022-09-17T04:27:43;12.70;90.60
74666;DHT22;63193;50.106;8.694;2022-09-17T04:30:09;12.70;90.90
74666;DHT22;63193;50.106;8.694;2022-09-17T04:32:35;12.70;90.20
74666;DHT22;63193;50.106;8.694;2022-09-17T04:35:01;12.70;90.00
74666;DHT22;63193;50.106;8.694;2022-09-17T04:37:26;12.70;89.70
74666;DHT22;63193;50.106;8.694;2022-09-17T04:39:52;12.70;90.00
74666;DHT22;63193;50.106;8.694;2022-09-17T04:42:18;12.80;89.10
74666;DHT22;63193;50.106;8.694;2022-09-17T04:44:43;12.80;89.30
74666;DHT22;63193;50.106;8.694;2022-09-17T04:47:09;12.80;87.80
74666;DHT22;63193;50.106;8.694;2022-09-17T04:49:34;12.80;87.40
74666;DHT22;63193;50.106;8.694;2022-09-17T04:52:00;12.80;88.00
74666;DHT22;63193;50.106;8.694;2022-09-17T04:54:25;12.70;87.00
74666;DHT22;63193;50.106;8.694;2022-09-17T04:56:51;12.70;87.60
74666;DHT22;63193;50.106;8.694;2022-09-17T04:59:17;12.80;87.80
74666;DHT22;63193;50.106;8.694;2022-09-17T05:01:42;12.80;87.00
74666;DHT22;63193;50.106;8.694;2022-09-17T05:04:08;12.90;87.50
74666;DHT22;63193;50.106;8.694;2022-09-17T05:06:34;12.80;87.00
74666;DHT22;63193;50.106;8.694;2022-09-17T05:09:00;12.80;86.70
74666;DHT22;63193;50.106;8.694;2022-09-17T05:11:27;12.80;86.60
74666;DHT22;63193;50.106;8.694;2022-09-17T05:13:52;12.80;87.40
74666;DHT22;63193;50.106;8.694;2022-09-17T05:16:18;12.80;86.50
74666;DHT22;63193;50.106;8.694;2022-09-17T05:18:44;12.80;86.20
74666;DHT22;63193;50.106;8.694;2022-09-17T05:21:10;12.80;86.30
74666;DHT22;63193;50.106;8.694;2022-09-17T05:23:35;12.80;86.40
74666;DHT22;63193;50.106;8.694;2022-09-17T05:26:01;12.80;86.70
74666;DHT22;63193;50.106;8.694;2022-09-17T05:28:27;12.80;87.00
74666;DHT22;63193;50.106;8.694;2022-09-17T05:30:53;12.80;86.20
74666;DHT22;63193;50.106;8.694;2022-09-17T05:33:18;12.90;86.30
74666;DHT22;63193;50.106;8.694;2022-09-17T05:35:44;12.90;86.00
74666;DHT22;63193;50.106;8.694;2022-09-17T05:38:10;12.80;85.60
74666;DHT22;63193;50.106;8.694;2022-09-17T05:40:35;12.80;85.90
74666;DHT22;63193;50.106;8.694;2022-09-17T05:43:04;12.80;85.90
74666;DHT22;63193;50.106;8.694;2022-09-17T05:45:31;12.80;86.10
74666;DHT22;63193;50.106;8.694;2022-09-17T05:47:58;12.80;85.70
74666;DHT22;63193;50.106;8.694;2022-09-17T05:50:24;12.80;85.70
74666;DHT22;63193;50.106;8.694;2022-09-17T05:52:50;12.80;85.70
74666;DHT22;63193;50.106;8.694;2022-09-17T05:55:17;12.90;86.00
74666;DHT22;63193;50.106;8.694;2022-09-17T05:57:42;12.90;85.40
74666;DHT22;63193;50.106;8.694;2022-09-17T06:00:09;13.00;85.50
74666;DHT22;63193;50.106;8.694;2022-09-17T06:02:36;13.00;84.90
74666;DHT22;63193;50.106;8.694;2022-09-17T06:05:01;13.00;84.50
74666;DHT22;63193;50.106;8.694;2022-09-17T06:07:28;13.00;85.00
74666;DHT22;63193;50.106;8.694;2022-09-17T06:09:53;13.00;84.90
74666;DHT22;63193;50.106;8.694;2022-09-17T06:12:19;13.10;84.70
74666;DHT22;63193;50.106;8.694;2022-09-17T06:14:45;13.10;84.50
74666;DHT22;63193;50.106;8.694;2022-09-17T06:17:10;13.20;84.20
74666;DHT22;63193;50.106;8.694;2022-09-17T06:19:36;13.20;83.40
74666;DHT22;63193;50.106;8.694;2022-09-17T06:22:01;13.20;83.10
74666;DHT22;63193;50.106;8.694;2022-09-17T06:24:27;13.20;82.90
74666;DHT22;63193;50.106;8.694;2022-09-17T06:26:53;13.20;83.10
74666;DHT22;63193;50.106;8.694;2022-09-17T06:29:19;13.10;83.40
74666;DHT22;63193;50.106;8.694;2022-09-17T06:31:47;13.10;83.00
74666;DHT22;63193;50.106;8.694;2022-09-17T06:34:12;13.10;83.00
74666;DHT22;63193;50.106;8.694;2022-09-17T06:36:38;13.10;83.00
74666;DHT22;63193;50.106;8.694;2022-09-17T06:39:04;13.20;83.30
74666;DHT22;63193;50.106;8.694;2022-09-17T06:41:30;13.20;83.70
74666;DHT22;63193;50.106;8.694;2022-09-17T06:43:55;13.20;82.70
74666;DHT22;63193;50.106;8.694;2022-09-17T06:46:21;13.20;82.90
74666;DHT22;63193;50.106;8.694;2022-09-17T06:48:47;13.30;82.60
74666;DHT22;63193;50.106;8.694;2022-09-17T06:51:12;13.50;82.20
74666;DHT22;63193;50.106;8.694;2022-09-17T06:53:39;13.70;82.20
74666;DHT22;63193;50.106;8.694;2022-09-17T06:56:06;13.80;80.60
74666;DHT22;63193;50.106;8.694;2022-09-17T06:58:34;13.90;81.10
74666;DHT22;63193;50.106;8.694;2022-09-17T07:01:04;13.90;81.10
74666;DHT22;63193;50.106;8.694;2022-09-17T07:03:30;13.90;81.10
74666;DHT22;63193;50.106;8.694;2022-09-17T07:05:56;13.80;79.40
74666;DHT22;63193;50.106;8.694;2022-09-17T07:08:22;13.80;79.40
74666;DHT22;63193;50.106;8.694;2022-09-17T07:10:48;13.90;78.20
74666;DHT22;63193;50.106;8.694;2022-09-17T07:13:14;14.10;76.60
74666;DHT22;63193;50.106;8.694;2022-09-17T07:15:39;14.30;75.40
74666;DHT22;63193;50.106;8.694;2022-09-17T07:18:11;14.40;75.10
74666;DHT22;63193;50.106;8.694;2022-09-17T07:20:37;14.60;73.50
74666;DHT22;63193;50.106;8.694;2022-09-17T07:23:03;14.60;73.50
74666;DHT22;63193;50.106;8.694;2022-09-17T07:25:29;14.60;71.60
74666;DHT22;63193;50.106;8.694;2022-09-17T07:27:54;14.50;72.20
74666;DHT22;63193;50.106;8.694;2022-09-17T07:30:21;14.40;73.20
74666;DHT22;63193;50.106;8.694;2022-09-17T07:32:46;14.40;72.70
74666;DHT22;63193;50.106;8.694;2022-09-17T07:35:12;14.40;72.50
74666;DHT22;63193;50.106;8.694;2022-09-17T07:37:38;14.40;71.80
74666;DHT22;63193;50.106;8.694;2022-09-17T07:40:04;14.50;71.70
74666;DHT22;63193;50.106;8.694;2022-09-17T07:42:33;14.60;70.80
74666;DHT22;63193;50.106;8.694;2022-09-17T07:44:59;14.70;70.00
74666;DHT22;63193;50.106;8.694;2022-09-17T07:47:25;14.90;68.80
74666;DHT22;63193;50.106;8.694;2022-09-17T07:49:50;14.90;68.90
74666;DHT22;63193;50.106;8.694;2022-09-17T07:52:16;14.80;68.90
74666;DHT22;63193;50.106;8.694;2022-09-17T07:54:41;14.70;69.30
74666;DHT22;63193;50.106;8.694;2022-09-17T07:57:07;14.60;69.40
74666;DHT22;63193;50.106;8.694;2022-09-17T07:59:32;14.70;69.40
74666;DHT22;63193;50.106;8.694;2022-09-17T08:01:58;15.00;68.70
74666;DHT22;63193;50.106;8.694;2022-09-17T08:04:24;15.30;67.50
74666;DHT22;63193;50.106;8.694;2022-09-17T08:06:50;15.40;66.10
74666;DHT22;63193;50.106;8.694;2022-09-17T08:09:16;15.60;66.00
74666;DHT22;63193;50.106;8.694;2022-09-17T08:11:43;15.50;62.20
74666;DHT22;63193;50.106;8.694;2022-09-17T08:14:11;15.40;62.40
74666;DHT22;63193;50.106;8.694;2022-09-17T08:16:37;15.40;62.10
74666;DHT22;63193;50.106;8.694;2022-09-17T08:19:03;15.50;62.40
74666;DHT22;63193;50.106;8.694;2022-09-17T08:21:28;15.50;62.50
74666;DHT22;63193;50.106;8.694;2022-09-17T08:23:54;15.50;63.80
74666;DHT22;63193;50.106;8.694;2022-09-17T08:26:21;15.40;63.30
74666;DHT22;63193;50.106;8.694;2022-09-17T08:28:54;15.30;64.10
74666;DHT22;63193;50.106;8.694;2022-09-17T08:31:22;15.30;64.80
74666;DHT22;63193;50.106;8.694;2022-09-17T08:33:48;15.40;64.50
74666;DHT22;63193;50.106;8.694;2022-09-17T08:36:15;15.40;64.70
74666;DHT22;63193;50.106;8.694;2022-09-17T08:38:41;15.60;64.00
74666;DHT22;63193;50.106;8.694;2022-09-17T08:41:41;15.60;62.80
74666;DHT22;63193;50.106;8.694;2022-09-17T08:47:33;15.90;60.80
74666;DHT22;63193;50.106;8.694;2022-09-17T08:50:06;16.10;61.00
74666;DHT22;63193;50.106;8.694;2022-09-17T08:53:59;17.70;56.90
74666;DHT22;63193;50.106;8.694;2022-09-17T08:56:03;19.80;50.50
74666;DHT22;63193;50.106;8.694;2022-09-17T08:59:11;21.60;45.90
74666;DHT22;63193;50.106;8.694;2022-09-17T09:01:57;23.20;41.80
74666;DHT22;63193;50.106;8.694;2022-09-17T09:04:54;24.70;38.90
74666;DHT22;63193;50.106;8.694;2022-09-17T09:07:25;25.90;35.70
74666;DHT22;63193;50.106;8.694;2022-09-17T09:10:05;27.20;33.30
74666;DHT22;63193;50.106;8.694;2022-09-17T09:12:36;27.60;32.30
74666;DHT22;63193;50.106;8.694;2022-09-17T09:15:05;27.50;31.00
74666;DHT22;63193;50.106;8.694;2022-09-17T09:17:37;28.30;29.50
74666;DHT22;63193;50.106;8.694;2022-09-17T09:20:17;27.90;30.00
74666;DHT22;63193;50.106;8.694;2022-09-17T09:22:49;27.90;29.80
74666;DHT22;63193;50.106;8.694;2022-09-17T09:25:24;25.90;32.50
74666;DHT22;63193;50.106;8.694;2022-09-17T09:28:16;22.60;38.70
74666;DHT22;63193;50.106;8.694;2022-09-17T09:33:54;19.50;45.30
74666;DHT22;63193;50.106;8.694;2022-09-17T09:36:20;19.70;45.80
74666;DHT22;63193;50.106;8.694;2022-09-17T09:39:23;20.40;44.00
74666;DHT22;63193;50.106;8.694;2022-09-17T09:42:04;21.10;43.70
74666;DHT22;63193;50.106;8.694;2022-09-17T09:44:31;23.50;38.50
74666;DHT22;63193;50.106;8.694;2022-09-17T09:50:24;22.00;38.40
74666;DHT22;63193;50.106;8.694;2022-09-17T09:53:27;20.20;43.10
74666;DHT22;63193;50.106;8.694;2022-09-17T09:59:28;18.30;48.20
74666;DHT22;63193;50.106;8.694;2022-09-17T10:01:54;18.70;47.90
74666;DHT22;63193;50.106;8.694;2022-09-17T10:04:24;19.70;46.50
74666;DHT22;63193;50.106;8.694;2022-09-17T10:06:52;20.00;44.00
74666;DHT22;63193;50.106;8.694;2022-09-17T10:09:20;19.70;44.00
74666;DHT22;63193;50.106;8.694;2022-09-17T10:12:04;19.10;45.50
74666;DHT22;63193;50.106;8.694;2022-09-17T10:14:33;18.70;45.80
74666;DHT22;63193;50.106;8.694;2022-09-17T10:17:19;18.40;47.10
74666;DHT22;63193;50.106;8.694;2022-09-17T10:20:12;18.20;48.40
74666;DHT22;63193;50.106;8.694;2022-09-17T10:22:45;17.80;49.30
74666;DHT22;63193;50.106;8.694;2022-09-17T10:25:31;17.60;49.60
74666;DHT22;63193;50.106;8.694;2022-09-17T10:28:03;17.60;49.80
74666;DHT22;63193;50.106;8.694;2022-09-17T10:30:30;17.50;50.20
74666;DHT22;63193;50.106;8.694;2022-09-17T10:33:20;17.60;50.30
74666;DHT22;63193;50.106;8.694;2022-09-17T10:36:13;17.30;49.50
74666;DHT22;63193;50.106;8.694;2022-09-17T10:38:43;17.20;49.00
74666;DHT22;63193;50.106;8.694;2022-09-17T10:41:18;17.60;48.80
74666;DHT22;63193;50.106;8.694;2022-09-17T10:43:47;17.90;48.30
74666;DHT22;63193;50.106;8.694;2022-09-17T10:46:15;18.00;47.80
74666;DHT22;63193;50.106;8.694;2022-09-17T10:49:20;18.20;47.60
74666;DHT22;63193;50.106;8.694;2022-09-17T10:51:48;18.30;47.50
74666;DHT22;63193;50.106;8.694;2022-09-17T10:54:38;18.30;46.80
74666;DHT22;63193;50.106;8.694;2022-09-17T10:57:06;18.30;47.00
74666;DHT22;63193;50.106;8.694;2022-09-17T11:00:09;18.50;46.70
74666;DHT22;63193;50.106;8.694;2022-09-17T11:03:17;18.70;46.70
74666;DHT22;63193;50.106;8.694;2022-09-17T11:06:22;19.20;45.80
74666;DHT22;63193;50.106;8.694;2022-09-17T11:12:19;18.50;46.20
74666;DHT22;63193;50.106;8.694;2022-09-17T11:14:53;18.50;46.10
74666;DHT22;63193;50.106;8.694;2022-09-17T11:17:42;18.40;47.20
74666;DHT22;63193;50.106;8.694;2022-09-17T11:27:02;18.90;45.90
74666;DHT22;63193;50.106;8.694;2022-09-17T11:33:17;18.70;46.40
74666;DHT22;63193;50.106;8.694;2022-09-17T11:35:48;18.80;46.80
74666;DHT22;63193;50.106;8.694;2022-09-17T11:38:40;18.60;47.60
74666;DHT22;63193;50.106;8.694;2022-09-17T11:41:30;18.70;47.30
74666;DHT22;63193;50.106;8.694;2022-09-17T11:44:15;18.80;46.80
74666;DHT22;63193;50.106;8.694;2022-09-17T11:46:49;18.60;47.60
74666;DHT22;63193;50.106;8.694;2022-09-17T11:49:29;18.50;47.30
74666;DHT22;63193;50.106;8.694;2022-09-17T11:52:03;18.00;53.00
74666;DHT22;63193;50.106;8.694;2022-09-17T11:54:42;17.20;58.10
74666;DHT22;63193;50.106;8.694;2022-09-17T11:57:29;16.80;55.90
74666;DHT22;63193;50.106;8.694;2022-09-17T12:00:18;16.50;54.90
74666;DHT22;63193;50.106;8.694;2022-09-17T12:03:28;16.30;56.40
74666;DHT22;63193;50.106;8.694;2022-09-17T12:05:57;16.20;58.50
74666;DHT22;63193;50.106;8.694;2022-09-17T12:08:52;16.30;57.50
74666;DHT22;63193;50.106;8.694;2022-09-17T12:11:32;16.60;57.90
74666;DHT22;63193;50.106;8.694;2022-09-17T12:14:09;17.00;56.50
74666;DHT22;63193;50.106;8.694;2022-09-17T12:16:39;17.10;53.90
74666;DHT22;63193;50.106;8.694;2022-09-17T12:19:21;17.30;54.90
74666;DHT22;63193;50.106;8.694;2022-09-17T12:22:00;17.40;54.80
74666;DHT22;63193;50.106;8.694;2022-09-17T12:24:29;17.50;53.60
74666;DHT22;63193;50.106;8.694;2022-09-17T12:27:23;17.50;51.20
74666;DHT22;63193;50.106;8.694;2022-09-17T12:30:11;17.50;51.00
74666;DHT22;63193;50.106;8.694;2022-09-17T12:33:00;17.40;50.30
74666;DHT22;63193;50.106;8.694;2022-09-17T12:39:04;17.40;50.40
74666;DHT22;63193;50.106;8.694;2022-09-17T12:42:46;17.40;50.40
74666;DHT22;63193;50.106;8.694;2022-09-17T12:45:00;17.50;51.20
74666;DHT22;63193;50.106;8.694;2022-09-17T12:54:07;18.20;49.30
74666;DHT22;63193;50.106;8.694;2022-09-17T12:57:06;18.20;49.30
74666;DHT22;63193;50.106;8.694;2022-09-17T12:59:44;18.00;47.70
74666;DHT22;63193;50.106;8.694;2022-09-17T13:02:35;18.00;47.70
74666;DHT22;63193;50.106;8.694;2022-09-17T13:05:35;17.90;47.80
74666;DHT22;63193;50.106;8.694;2022-09-17T13:11:49;17.90;47.10
74666;DHT22;63193;50.106;8.694;2022-09-17T13:14:47;17.60;47.30
74666;DHT22;63193;50.106;8.694;2022-09-17T13:17:59;17.40;48.00
74666;DHT22;63193;50.106;8.694;2022-09-17T13:20:31;17.50;49.00
74666;DHT22;63193;50.106;8.694;2022-09-17T13:22:59;17.60;48.80
74666;DHT22;63193;50.106;8.694;2022-09-17T13:25:25;17.60;47.20
74666;DHT22;63193;50.106;8.694;2022-09-17T13:28:05;17.60;45.40
74666;DHT22;63193;50.106;8.694;2022-09-17T13:30:57;17.60;45.00
74666;DHT22;63193;50.106;8.694;2022-09-17T13:33:58;17.60;44.70
74666;DHT22;63193;50.106;8.694;2022-09-17T13:36:48;17.50;45.10
74666;DHT22;63193;50.106;8.694;2022-09-17T13:39:48;17.40;45.30
74666;DHT22;63193;50.106;8.694;2022-09-17T13:42:42;17.40;45.90
74666;DHT22;63193;50.106;8.694;2022-09-17T13:45:11;17.40;46.30
74666;DHT22;63193;50.106;8.694;2022-09-17T13:48:00;17.50;46.30
74666;DHT22;63193;50.106;8.694;2022-09-17T13:50:41;17.60;46.00
74666;DHT22;63193;50.106;8.694;2022-09-17T13:53:17;17.60;45.90
74666;DHT22;63193;50.106;8.694;2022-09-17T13:55:49;17.50;46.00
74666;DHT22;63193;50.106;8.694;2022-09-17T13:58:33;17.40;46.30
74666;DHT22;63193;50.106;8.694;2022-09-17T14:01:05;17.40;46.60
74666;DHT22;63193;50.106;8.694;2022-09-17T14:03:52;17.30;46.60
74666;DHT22;63193;50.106;8.694;2022-09-17T14:06:45;17.40;46.20
74666;DHT22;63193;50.106;8.694;2022-09-17T14:09:34;17.40;46.20
74666;DHT22;63193;50.106;8.694;2022-09-17T14:15:56;17.30;46.40
74666;DHT22;63193;50.106;8.694;2022-09-17T14:21:33;17.20;45.40
74666;DHT22;63193;50.106;8.694;2022-09-17T14:24:18;17.30;45.30
74666;DHT22;63193;50.106;8.694;2022-09-17T14:26:56;17.40;44.50
74666;DHT22;63193;50.106;8.694;2022-09-17T14:29:39;17.40;44.90
74666;DHT22;63193;50.106;8.694;2022-09-17T14:32:27;17.30;45.50
74666;DHT22;63193;50.106;8.694;2022-09-17T14:35:01;17.20;45.90
74666;DHT22;63193;50.106;8.694;2022-09-17T14:37:28;17.20;46.60
74666;DHT22;63193;50.106;8.694;2022-09-17T14:39:54;17.00;48.10
74666;DHT22;63193;50.106;8.694;2022-09-17T14:42:24;16.60;55.30
74666;DHT22;63193;50.106;8.694;2022-09-17T14:44:59;16.20;58.90
74666;DHT22;63193;50.106;8.694;2022-09-17T14:47:26;15.70;58.70
74666;DHT22;63193;50.106;8.694;2022-09-17T14:49:53;15.60;58.10
74666;DHT22;63193;50.106;8.694;2022-09-17T14:52:29;15.60;56.70
74666;DHT22;63193;50.106;8.694;2022-09-17T14:55:22;15.60;56.80
74666;DHT22;63193;50.106;8.694;2022-09-17T14:57:55;15.90;55.40
74666;DHT22;63193;50.106;8.694;2022-09-17T15:00:23;16.10;56.00
74666;DHT22;63193;50.106;8.694;2022-09-17T15:02:54;16.30;55.40
74666;DHT22;63193;50.106;8.694;2022-09-17T15:05:28;16.40;55.70
74666;DHT22;63193;50.106;8.694;2022-09-17T15:08:13;16.70;55.90
74666;DHT22;63193;50.106;8.694;2022-09-17T15:11:02;17.10;54.70
74666;DHT22;63193;50.106;8.694;2022-09-17T15:13:50;17.50;54.10
74666;DHT22;63193;50.106;8.694;2022-09-17T15:16:21;17.80;53.70
74666;DHT22;63193;50.106;8.694;2022-09-17T15:18:53;17.80;52.00
74666;DHT22;63193;50.106;8.694;2022-09-17T15:24:37;17.50;51.50
74666;DHT22;63193;50.106;8.694;2022-09-17T15:27:22;17.20;52.30
74666;DHT22;63193;50.106;8.694;2022-09-17T15:29:58;17.10;52.90
74666;DHT22;63193;50.106;8.694;2022-09-17T15:32:26;17.00;52.40
74666;DHT22;63193;50.106;8.694;2022-09-17T15:35:27;17.00;52.70
74666;DHT22;63193;50.106;8.694;2022-09-17T15:38:01;17.10;52.40
74666;DHT22;63193;50.106;8.694;2022-09-17T15:40:31;17.30;52.10
74666;DHT22;63193;50.106;8.694;2022-09-17T15:43:25;17.30;51.80
74666;DHT22;63193;50.106;8.694;2022-09-17T15:45:52;17.50;52.00
74666;DHT22;63193;50.106;8.694;2022-09-17T15:48:36;17.60;51.80
74666;DHT22;63193;50.106;8.694;2022-09-17T15:51:05;17.70;51.30
74666;DHT22;63193;50.106;8.694;2022-09-17T15:53:35;17.50;51.30
74666;DHT22;63193;50.106;8.694;2022-09-17T15:56:16;17.20;50.90
74666;DHT22;63193;50.106;8.694;2022-09-17T15:59:03;16.80;51.80
74666;DHT22;63193;50.106;8.694;2022-09-17T16:01:50;16.50;52.60
74666;DHT22;63193;50.106;8.694;2022-09-17T16:04:19;16.10;54.10
74666;DHT22;63193;50.106;8.694;2022-09-17T16:07:26;15.80;57.30
74666;DHT22;63193;50.106;8.694;2022-09-17T16:09:52;15.60;57.00
74666;DHT22;63193;50.106;8.694;2022-09-17T16:12:20;15.60;56.80
74666;DHT22;63193;50.106;8.694;2022-09-17T16:14:49;15.60;55.10
74666;DHT22;63193;50.106;8.694;2022-09-17T16:17:26;15.70;55.40
74666;DHT22;63193;50.106;8.694;2022-09-17T16:19:53;15.70;54.70
74666;DHT22;63193;50.106;8.694;2022-09-17T16:22:20;15.70;53.80
74666;DHT22;63193;50.106;8.694;2022-09-17T16:24:45;15.80;54.60
74666;DHT22;63193;50.106;8.694;2022-09-17T16:27:20;15.80;54.20
74666;DHT22;63193;50.106;8.694;2022-09-17T16:29:46;15.80;55.80
74666;DHT22;63193;50.106;8.694;2022-09-17T16:32:13;15.80;55.80
74666;DHT22;63193;50.106;8.694;2022-09-17T16:34:38;15.70;56.50
74666;DHT22;63193;50.106;8.694;2022-09-17T16:37:04;15.60;57.00
74666;DHT22;63193;50.106;8.694;2022-09-17T16:39:29;15.60;57.20
74666;DHT22;63193;50.106;8.694;2022-09-17T16:41:55;15.50;57.30
74666;DHT22;63193;50.106;8.694;2022-09-17T16:44:21;15.60;56.90
74666;DHT22;63193;50.106;8.694;2022-09-17T16:46:47;15.60;56.70
74666;DHT22;63193;50.106;8.694;2022-09-17T16:49:16;15.50;56.50
74666;DHT22;63193;50.106;8.694;2022-09-17T16:51:41;15.50;57.10
74666;DHT22;63193;50.106;8.694;2022-09-17T16:54:07;15.50;56.90
74666;DHT22;63193;50.106;8.694;2022-09-17T16:56:32;15.40;57.50
74666;DHT22;63193;50.106;8.694;2022-09-17T16:58:58;15.40;57.70
74666;DHT22;63193;50.106;8.694;2022-09-17T17:01:23;15.40;57.70
74666;DHT22;63193;50.106;8.694;2022-09-17T17:03:50;15.30;57.50
74666;DHT22;63193;50.106;8.694;2022-09-17T17:06:20;15.30;57.30
74666;DHT22;63193;50.106;8.694;2022-09-17T17:08:46;15.20;57.40
74666;DHT22;63193;50.106;8.694;2022-09-17T17:11:12;15.20;58.60
74666;DHT22;63193;50.106;8.694;2022-09-17T17:13:37;15.10;58.90
74666;DHT22;63193;50.106;8.694;2022-09-17T17:16:11;15.00;61.50
74666;DHT22;63193;50.106;8.694;2022-09-17T17:18:37;15.10;59.10
74666;DHT22;63193;50.106;8.694;2022-09-17T17:21:04;14.80;58.20
74666;DHT22;63193;50.106;8.694;2022-09-17T17:23:30;14.90;59.00
74666;DHT22;63193;50.106;8.694;2022-09-17T17:25:56;14.90;58.20
74666;DHT22;63193;50.106;8.694;2022-09-17T17:28:21;14.80;58.80